Time;durP1;ratioP1;P1;durP2;ratioP2;P2;SDS_P1;SDS_P2;PMS_P1;PMS_P2;Temp;Humidity;BMP_temperature;BMP_pressure;BME280_temperature;BME280_humidity;BME280_pressure;Samples;Min_cycle;Max_cycle;Signal;HPM_P1;HPM_P2
2023/02/15 00:01:54;;;;;;;28.63;12.77;;;;;;;-0.95;100.00;100177.88;5028167;28;20033;-77
2023/02/15 00:04:22;;;;;;;62.65;12.00;;;;;;;-0.98;100.00;100195.81;5052285;28;20025;-78
2023/02/15 00:06:48;;;;;;;60.03;12.98;;;;;;;-1.23;100.00;100176.09;5039774;28;20028;-78
2023/02/15 00:09:13;;;;;;;29.75;12.43;;;;;;;-1.03;100.00;100174.00;5040386;28;20293;-78
2023/02/15 00:11:39;;;;;;;24.80;11.85;;;;;;;-0.92;100.00;100179.50;5054681;28;20025;-78
2023/02/15 00:14:13;;;;;;;51.65;12.18;;;;;;;-1.07;100.00;100178.66;5045739;28;20056;-78
2023/02/15 00:16:40;;;;;;;59.55;13.85;;;;;;;-1.16;100.00;100182.72;5051780;28;20074;-78
2023/02/15 00:19:07;;;;;;;44.63;12.80;;;;;;;-1.37;100.00;100155.69;5052771;28;20099;-78
2023/02/15 00:21:34;;;;;;;106.00;14.45;;;;;;;-1.32;100.00;100166.03;5052474;28;20048;-78
2023/02/15 00:24:01;;;;;;;63.53;15.13;;;;;;;-1.28;100.00;100178.19;5056579;28;20407;-78
2023/02/15 00:26:27;;;;;;;67.85;15.55;;;;;;;-1.40;100.00;100155.03;5052761;28;20040;-78
2023/02/15 00:28:54;;;;;;;78.18;14.88;;;;;;;-1.38;100.00;100169.09;5043435;28;20048;-78
2023/02/15 00:31:20;;;;;;;32.45;13.85;;;;;;;-1.23;100.00;100183.19;5034474;28;20024;-77
2023/02/15 00:33:46;;;;;;;69.95;15.55;;;;;;;-1.29;100.00;100181.78;5038321;28;20033;-78
2023/02/15 00:36:11;;;;;;;72.80;13.60;;;;;;;-1.40;100.00;100179.78;5052424;28;20031;-77
2023/02/15 00:38:37;;;;;;;31.92;13.02;;;;;;;-1.19;100.00;100174.97;5034579;28;20095;-77
2023/02/15 00:41:05;;;;;;;73.45;14.18;;;;;;;-1.20;100.00;100167.94;5040912;28;20021;-78
2023/02/15 00:43:32;;;;;;;37.75;12.32;;;;;;;-0.99;100.00;100179.03;5048417;28;20033;-78
2023/02/15 00:45:58;;;;;;;52.38;13.93;;;;;;;-1.12;100.00;100168.31;5057453;28;20024;-78
2023/02/15 00:48:23;;;;;;;62.67;13.52;;;;;;;-1.11;100.00;100171.81;5061786;28;20033;-77
2023/02/15 00:50:54;;;;;;;47.10;12.20;;;;;;;-1.32;100.00;100143.00;5028229;28;21787;-78
2023/02/15 00:53:20;;;;;;;51.53;12.25;;;;;;;-1.12;100.00;100183.41;5043044;28;20020;-78
2023/02/15 00:55:46;;;;;;;42.20;11.60;;;;;;;-1.07;100.00;100167.16;5046258;28;20044;-78
2023/02/15 00:58:12;;;;;;;37.45;12.63;;;;;;;-1.04;100.00;100178.47;5050957;28;20517;-78
2023/02/15 01:00:39;;;;;;;52.25;13.38;;;;;;;-1.15;100.00;100154.41;5055641;28;20108;-78
2023/02/15 01:03:04;;;;;;;35.70;11.48;;;;;;;-1.04;100.00;100177.63;5055939;28;20083;-78
2023/02/15 01:05:30;;;;;;;31.90;11.10;;;;;;;-1.13;100.00;100169.28;5072994;28;20032;-79
2023/02/15 01:07:56;;;;;;;50.45;10.68;;;;;;;-1.34;100.00;100144.03;5058986;28;20029;-78
2023/02/15 01:10:22;;;;;;;52.80;10.80;;;;;;;-1.27;100.00;100160.47;5062421;28;20056;-78
2023/02/15 01:12:50;;;;;;;20.23;9.73;;;;;;;-1.27;100.00;100165.75;5053616;28;20040;-78
2023/02/15 01:15:15;;;;;;;62.90;10.27;;;;;;;-1.36;100.00;100165.38;5039569;28;20017;-79
2023/02/15 01:17:41;;;;;;;29.98;10.60;;;;;;;-1.42;100.00;100147.16;5059356;28;20025;-77
2023/02/15 01:20:07;;;;;;;20.25;10.20;;;;;;;-1.22;100.00;100167.19;5043339;28;20031;-77
2023/02/15 01:22:32;;;;;;;23.80;9.75;;;;;;;-1.00;100.00;100165.84;5039482;28;20020;-78
2023/02/15 01:24:58;;;;;;;16.23;7.93;;;;;;;-1.05;100.00;100146.69;5065385;28;20040;-78
2023/02/15 01:27:23;;;;;;;51.38;9.38;;;;;;;-1.12;100.00;100155.03;5053966;28;20036;-78
2023/02/15 01:29:48;;;;;;;67.80;9.55;;;;;;;-1.27;100.00;100150.69;5036537;28;20406;-77
2023/02/15 01:32:14;;;;;;;32.63;9.10;;;;;;;-1.01;100.00;100172.97;5068844;28;20091;-77
2023/02/15 01:34:39;;;;;;;57.00;8.95;;;;;;;-1.24;100.00;100158.44;5056238;28;20033;-78
2023/02/15 01:37:04;;;;;;;20.77;9.07;;;;;;;-1.23;100.00;100135.41;5052759;28;20036;-78
2023/02/15 01:39:29;;;;;;;44.55;8.38;;;;;;;-1.29;100.00;100160.53;5037975;28;20430;-77
2023/02/15 01:41:55;;;;;;;30.08;8.82;;;;;;;-1.46;100.00;100147.47;5053205;28;20453;-78
2023/02/15 01:44:45;;;;;;;32.10;9.32;;;;;;;-1.40;100.00;100170.97;5034518;28;20040;-78
2023/02/15 01:47:14;;;;;;;46.20;11.00;;;;;;;-1.56;100.00;100150.66;5038626;28;20091;-78
2023/02/15 01:49:41;;;;;;;37.75;7.35;;;;;;;-1.56;100.00;100155.97;5049012;28;20025;-78
2023/02/15 01:52:10;;;;;;;47.85;10.57;;;;;;;-1.57;100.00;100162.25;5048950;28;20040;-78
2023/02/15 01:54:39;;;;;;;55.95;11.50;;;;;;;-1.61;100.00;100142.13;5061110;28;20032;-77
2023/02/15 01:57:13;;;;;;;60.88;13.05;;;;;;;-1.49;100.00;100171.50;5061633;28;20029;-78
2023/02/15 01:59:42;;;;;;;62.30;13.57;;;;;;;-1.51;100.00;100157.50;5039079;28;20025;-77
2023/02/15 02:02:11;;;;;;;103.28;13.88;;;;;;;-1.73;100.00;100152.63;5037054;28;20020;-78
2023/02/15 02:04:49;;;;;;;87.85;14.50;;;;;;;-1.75;100.00;100139.47;5045086;28;20021;-78
2023/02/15 02:07:18;;;;;;;84.03;14.23;;;;;;;-1.66;100.00;100167.22;5042240;28;20115;-79
2023/02/15 02:09:45;;;;;;;67.80;13.02;;;;;;;-1.63;100.00;100159.94;5054733;28;20033;-78
2023/02/15 02:12:10;;;;;;;59.45;13.00;;;;;;;-1.62;100.00;100144.91;5037656;28;20032;-78
2023/02/15 02:14:37;;;;;;;190.05;14.77;;;;;;;-1.71;100.00;100148.94;5053849;28;20029;-78
2023/02/15 02:17:29;;;;;;;76.35;12.38;;;;;;;-1.65;100.00;100150.34;5042547;28;20024;-78
2023/02/15 02:20:25;;;;;;;97.07;13.95;;;;;;;-1.75;100.00;100136.81;5037063;28;20025;-78
2023/02/15 02:23:24;;;;;;;44.72;11.38;;;;;;;-1.48;100.00;100138.75;5047255;28;20455;-78
2023/02/15 02:26:07;;;;;;;82.97;10.20;;;;;;;-1.61;100.00;100130.66;5055318;28;20026;-77
2023/02/15 02:29:15;;;;;;;149.65;13.23;;;;;;;-1.77;100.00;100130.75;5075736;28;20084;-76
2023/02/15 02:32:12;;;;;;;92.90;12.03;;;;;;;-1.71;100.00;100143.63;5058030;28;20055;-79
2023/02/15 02:34:49;;;;;;;116.10;11.93;;;;;;;-1.76;100.00;100140.41;5069111;28;20020;-78
2023/02/15 02:37:42;;;;;;;118.13;13.55;;;;;;;-1.71;100.00;100135.66;5065759;28;20111;-78
2023/02/15 02:40:18;;;;;;;50.80;10.93;;;;;;;-1.51;100.00;100137.13;5025246;28;20033;-78
2023/02/15 02:42:54;;;;;;;128.05;11.50;;;;;;;-1.60;100.00;100133.25;5037134;28;20816;-78
2023/02/15 02:45:26;;;;;;;163.40;13.45;;;;;;;-1.64;100.00;100136.16;5035765;28;20024;-78
2023/02/15 02:48:05;;;;;;;184.90;13.40;;;;;;;-1.67;100.00;100139.00;5039039;28;20025;-79
2023/02/15 02:50:31;;;;;;;129.18;12.68;;;;;;;-1.86;100.00;100133.94;5059188;28;20021;-77
2023/02/15 02:52:58;;;;;;;74.85;10.50;;;;;;;-1.83;100.00;100142.56;5045157;28;20032;-78
2023/02/15 02:55:57;;;;;;;104.00;12.35;;;;;;;-1.92;100.00;100127.19;5036118;28;20059;-77
2023/02/15 02:58:29;;;;;;;169.15;13.15;;;;;;;-2.01;100.00;100127.75;5042244;28;20021;-76
2023/02/15 03:01:01;;;;;;;76.15;11.50;;;;;;;-2.05;100.00;100150.94;5056817;28;20043;-76
2023/02/15 03:03:44;;;;;;;218.88;14.55;;;;;;;-2.17;100.00;100134.88;5039243;28;20021;-76
2023/02/15 03:06:17;;;;;;;102.20;10.88;;;;;;;-2.05;100.00;100132.38;5023398;28;20029;-76
2023/02/15 03:08:48;;;;;;;184.32;14.50;;;;;;;-2.12;100.00;100123.09;5055326;28;20378;-77
2023/02/15 03:11:14;;;;;;;93.00;10.98;;;;;;;-2.07;100.00;100131.63;5024060;28;20520;-76
2023/02/15 03:13:40;;;;;;;124.25;10.50;;;;;;;-2.16;100.00;100126.84;5065070;28;20024;-74
2023/02/15 03:16:27;;;;;;;105.40;11.32;;;;;;;-1.96;100.00;100135.44;5056483;28;20031;-77
2023/02/15 03:19:05;;;;;;;75.53;11.45;;;;;;;-1.92;100.00;100129.00;5035866;28;20657;-76
2023/02/15 03:21:57;;;;;;;93.30;9.80;;;;;;;-1.93;100.00;100119.34;5034562;28;20028;-76
2023/02/15 03:24:31;;;;;;;118.30;12.18;;;;;;;-1.81;100.00;100134.50;5036824;28;20029;-77
2023/02/15 03:26:57;;;;;;;119.32;11.90;;;;;;;-1.80;100.00;100125.63;5035617;28;20036;-76
2023/02/15 03:29:27;;;;;;;42.05;10.52;;;;;;;-1.67;100.00;100131.91;5034780;28;20025;-76
2023/02/15 03:32:02;;;;;;;132.85;11.75;;;;;;;-1.82;100.00;100109.78;5061806;28;20029;-75
2023/02/15 03:34:28;;;;;;;99.80;10.95;;;;;;;-1.75;100.00;100115.59;5065547;28;20064;-76
2023/02/15 03:37:09;;;;;;;60.10;11.82;;;;;;;-1.70;100.00;100124.13;5065888;28;20254;-76
2023/02/15 03:39:41;;;;;;;99.50;13.02;;;;;;;-1.60;100.00;100125.28;5035635;28;20037;-76
2023/02/15 03:42:12;;;;;;;100.45;12.00;;;;;;;-1.64;100.00;100133.50;5059758;28;20032;-76
2023/02/15 03:44:56;;;;;;;224.32;13.70;;;;;;;-1.93;100.00;100114.03;5054231;28;20025;-76
2023/02/15 03:47:28;;;;;;;61.25;11.65;;;;;;;-1.70;100.00;100126.78;5053343;28;20021;-75
2023/02/15 03:50:00;;;;;;;28.10;9.98;;;;;;;-1.47;100.00;100138.63;5039829;28;21693;-76
2023/02/15 03:52:29;;;;;;;49.70;10.60;;;;;;;-1.39;100.00;100143.47;5036286;28;20048;-76
2023/02/15 03:54:54;;;;;;;39.65;8.13;;;;;;;-1.33;100.00;100154.56;5037852;28;20161;-76
2023/02/15 04:03:08;;;;;;;57.90;9.35;;;;;;;-1.15;100.00;100144.63;5060491;28;20044;-76
2023/02/15 04:05:34;;;;;;;184.63;10.75;;;;;;;-1.44;100.00;100114.56;5032212;28;20581;-75
2023/02/15 04:07:59;;;;;;;58.05;9.02;;;;;;;-1.28;100.00;100127.75;5034773;28;20052;-76
2023/02/15 04:13:08;;;;;;;101.53;9.13;;;;;;;-1.39;100.00;100135.50;5053518;28;20116;-76
2023/02/15 04:18:17;;;;;;;22.73;8.05;;;;;;;-1.37;100.00;100125.66;5055997;28;20078;-77
2023/02/15 04:26:12;;;;;;;36.13;8.30;;;;;;;-1.22;100.00;100127.34;5056683;28;20095;-76
2023/02/15 04:28:37;;;;;;;20.95;8.32;;;;;;;-1.28;100.00;100122.44;5045673;28;20024;-77
2023/02/15 04:31:02;;;;;;;43.60;8.38;;;;;;;-1.33;100.00;100112.09;5042394;28;20024;-75
2023/02/15 04:33:28;;;;;;;41.00;7.90;;;;;;;-1.32;100.00;100115.59;5065074;28;20364;-77
2023/02/15 04:35:53;;;;;;;18.13;8.13;;;;;;;-1.25;100.00;100116.94;5051144;28;20058;-77
2023/02/15 04:38:18;;;;;;;27.17;7.32;;;;;;;-1.45;100.00;100106.69;5048982;28;20056;-76
2023/02/15 04:40:44;;;;;;;27.10;7.90;;;;;;;-1.62;100.00;100102.44;5044786;28;20035;-76
2023/02/15 04:43:09;;;;;;;57.90;8.52;;;;;;;-1.73;100.00;100084.50;5057422;28;20043;-76
2023/02/15 04:45:34;;;;;;;33.30;8.70;;;;;;;-1.69;100.00;100093.97;5034804;28;20022;-78
2023/02/15 04:47:59;;;;;;;46.63;8.77;;;;;;;-1.87;100.00;100103.06;5056176;28;20085;-78
2023/02/15 04:50:25;;;;;;;45.22;8.82;;;;;;;-1.89;100.00;100112.91;5039355;28;20024;-79
2023/02/15 04:52:53;;;;;;;32.20;8.27;;;;;;;-2.02;100.00;100096.88;5035564;28;20070;-78
2023/02/15 04:55:19;;;;;;;47.30;8.00;;;;;;;-1.96;100.00;100091.22;5052004;28;20593;-79
2023/02/15 04:57:46;;;;;;;35.28;8.82;;;;;;;-1.89;100.00;100099.63;5041607;28;20066;-76
2023/02/15 05:00:11;;;;;;;44.55;8.88;;;;;;;-1.88;100.00;100106.66;5025224;28;20072;-79
2023/02/15 05:02:37;;;;;;;41.53;8.70;;;;;;;-2.00;100.00;100085.22;5053101;28;20028;-77
2023/02/15 05:05:03;;;;;;;16.50;7.57;;;;;;;-1.92;100.00;100095.38;5057082;28;20075;-73
2023/02/15 05:07:28;;;;;;;28.63;8.35;;;;;;;-1.95;100.00;100090.25;5054802;28;20552;-74
2023/02/15 05:09:54;;;;;;;54.55;8.05;;;;;;;-1.96;100.00;100091.22;5049843;28;20068;-78
2023/02/15 05:12:19;;;;;;;23.33;8.23;;;;;;;-2.12;100.00;100078.03;5044363;28;20398;-77
2023/02/15 05:14:44;;;;;;;31.52;8.27;;;;;;;-2.17;100.00;100089.81;5060268;28;20063;-74
2023/02/15 05:17:09;;;;;;;20.92;8.30;;;;;;;-2.14;100.00;100090.50;5039895;28;20387;-77
2023/02/15 05:19:35;;;;;;;19.60;8.95;;;;;;;-2.16;100.00;100079.13;5035322;28;20032;-76
2023/02/15 05:22:00;;;;;;;38.15;8.73;;;;;;;-2.00;100.00;100095.81;5058886;28;20110;-78
2023/02/15 05:29:56;;;;;;;49.75;8.20;;;;;;;-1.91;100.00;100106.81;5054200;28;20032;-73
2023/02/15 05:32:22;;;;;;;38.50;7.32;;;;;;;-2.08;100.00;100084.81;5048553;28;20403;-76
2023/02/15 05:34:47;;;;;;;63.90;9.15;;;;;;;-2.15;100.00;100090.59;5047263;28;20467;-74
2023/02/15 05:37:12;;;;;;;56.88;8.98;;;;;;;-2.22;100.00;100098.06;5033985;28;20391;-75
2023/02/15 05:39:38;;;;;;;41.83;8.25;;;;;;;-2.29;100.00;100094.06;5023543;28;20036;-74
2023/02/15 05:42:04;;;;;;;33.00;8.43;;;;;;;-2.35;100.00;100083.81;5019770;28;20038;-79
2023/02/15 05:44:29;;;;;;;52.20;8.18;;;;;;;-2.18;100.00;100104.88;5018802;28;20414;-80
2023/02/15 05:46:55;;;;;;;57.65;8.50;;;;;;;-2.32;100.00;100102.19;5036806;28;20048;-78
2023/02/15 05:49:20;;;;;;;41.35;8.18;;;;;;;-2.30;100.00;100095.00;5040221;28;20028;-80
2023/02/15 05:51:45;;;;;;;30.70;7.78;;;;;;;-2.24;100.00;100092.00;5052815;28;20055;-76
2023/02/15 05:54:11;;;;;;;28.90;8.32;;;;;;;-2.06;100.00;100093.56;5057014;28;20032;-77
2023/02/15 05:56:36;;;;;;;19.05;7.85;;;;;;;-1.93;100.00;100093.69;5053937;28;20024;-74
2023/02/15 05:59:02;;;;;;;43.17;8.70;;;;;;;-2.11;100.00;100098.28;5036083;28;20078;-75
2023/02/15 06:01:27;;;;;;;15.90;7.30;;;;;;;-2.11;100.00;100098.28;5034368;28;20039;-74
2023/02/15 06:03:53;;;;;;;13.68;7.30;;;;;;;-2.06;100.00;100093.56;5037302;28;20048;-73
2023/02/15 06:06:19;;;;;;;40.45;8.90;;;;;;;-1.89;100.00;100103.13;5059937;28;20024;-74
2023/02/15 06:08:44;;;;;;;41.97;8.63;;;;;;;-2.02;100.00;100104.81;5060771;28;20036;-77
2023/02/15 06:11:10;;;;;;;52.53;8.15;;;;;;;-2.10;100.00;100105.28;5058283;28;20020;-74
2023/02/15 06:13:36;;;;;;;33.60;8.70;;;;;;;-2.21;100.00;100111.22;5077275;28;20474;-76
2023/02/15 06:16:01;;;;;;;25.23;8.07;;;;;;;-2.37;100.00;100098.97;5060549;28;20051;-77
2023/02/15 06:18:26;;;;;;;66.22;9.18;;;;;;;-2.44;100.00;100099.31;5074975;28;20017;-77
2023/02/15 06:20:53;;;;;;;51.53;8.43;;;;;;;-2.53;100.00;100118.38;5063273;28;20031;-76
2023/02/15 06:23:18;;;;;;;37.08;9.25;;;;;;;-2.39;100.00;100092.88;5071551;28;20009;-74
2023/02/15 06:25:45;;;;;;;94.30;10.35;;;;;;;-2.40;100.00;100115.03;5043303;28;20039;-73
2023/02/15 06:28:10;;;;;;;63.05;8.65;;;;;;;-2.48;100.00;100105.72;5035953;28;20035;-74
2023/02/15 06:30:36;;;;;;;40.13;8.93;;;;;;;-2.27;100.00;100116.03;5035503;28;20020;-74
2023/02/15 06:33:01;;;;;;;44.60;8.80;;;;;;;-2.18;100.00;100120.78;5033377;28;20056;-74
2023/02/15 06:35:26;;;;;;;30.13;9.45;;;;;;;-2.14;100.00;100129.44;5050863;28;20032;-74
2023/02/15 06:37:52;;;;;;;70.25;10.70;;;;;;;-2.21;100.00;100124.47;5046102;28;20021;-73
2023/02/15 06:40:17;;;;;;;38.63;8.80;;;;;;;-2.12;100.00;100116.91;5037564;28;20021;-74
2023/02/15 06:42:43;;;;;;;18.25;8.30;;;;;;;-2.07;100.00;100120.16;5050919;28;20143;-72
2023/02/15 06:45:09;;;;;;;23.83;9.68;;;;;;;-1.89;100.00;100148.22;5041657;28;20078;-74
2023/02/15 06:47:34;;;;;;;75.78;9.75;;;;;;;-2.04;100.00;100133.25;5057401;28;20055;-79
2023/02/15 06:50:00;;;;;;;53.88;9.88;;;;;;;-1.99;100.00;100128.53;5036916;28;20414;-78
2023/02/15 06:52:25;;;;;;;24.02;9.43;;;;;;;-1.82;100.00;100141.63;5050740;28;20099;-77
2023/02/15 06:54:50;;;;;;;36.80;8.88;;;;;;;-1.87;100.00;100134.88;5061527;28;20379;-77
2023/02/15 06:57:17;;;;;;;51.95;8.88;;;;;;;-1.99;100.00;100124.06;5061828;28;20047;-75
2023/02/15 06:59:42;;;;;;;49.60;9.30;;;;;;;-2.15;100.00;100117.94;5063019;28;20036;-76
2023/02/15 07:02:09;;;;;;;26.65;8.93;;;;;;;-1.98;100.00;100131.06;5026369;28;20029;-75
2023/02/15 07:04:36;;;;;;;27.25;9.20;;;;;;;-1.75;100.00;100123.56;5063343;28;20522;-79
2023/02/15 07:07:02;;;;;;;19.02;8.32;;;;;;;-1.65;100.00;100140.63;5023009;28;20666;-78
2023/02/15 07:09:27;;;;;;;19.08;7.95;;;;;;;-1.63;100.00;100135.22;5066418;28;20115;-76
2023/02/15 07:14:36;;;;;;;27.13;8.82;;;;;;;-1.57;100.00;100138.34;5048011;28;20106;-75
2023/02/15 07:17:01;;;;;;;28.55;7.20;;;;;;;-1.57;100.00;100140.16;5049298;28;20056;-77
2023/02/15 07:19:26;;;;;;;23.10;8.30;;;;;;;-1.76;100.00;100124.47;5025772;28;20017;-80
2023/02/15 07:21:52;;;;;;;38.97;9.25;;;;;;;-1.62;100.00;100147.53;5036264;28;20090;-78
2023/02/15 07:24:17;;;;;;;24.80;8.52;;;;;;;-1.50;100.00;100132.66;5054446;28;20039;-79
2023/02/15 07:26:42;;;;;;;33.00;8.05;;;;;;;-1.38;100.00;100147.84;5030701;28;20041;-78
2023/02/15 07:29:08;;;;;;;15.65;7.75;;;;;;;-1.32;100.00;100131.53;5048884;28;20034;-77
2023/02/15 07:31:33;;;;;;;13.95;7.43;;;;;;;-1.23;100.00;100136.28;5031807;28;20028;-77
2023/02/15 07:33:58;;;;;;;81.13;9.82;;;;;;;-1.57;100.00;100129.53;5056902;28;20028;-73
2023/02/15 07:36:23;;;;;;;43.80;8.63;;;;;;;-1.53;100.00;100122.25;5054406;28;20029;-76
2023/02/15 07:38:49;;;;;;;22.85;9.40;;;;;;;-1.62;100.00;100143.09;5026156;28;20112;-78
2023/02/15 07:41:15;;;;;;;44.65;9.77;;;;;;;-1.77;100.00;100125.44;5034968;28;20461;-75
2023/02/15 07:43:43;;;;;;;65.72;9.60;;;;;;;-1.89;100.00;100136.78;5029750;28;20029;-75
2023/02/15 07:46:11;;;;;;;46.08;10.35;;;;;;;-1.64;100.00;100137.00;5026935;28;20612;-78
2023/02/15 07:48:38;;;;;;;37.67;9.98;;;;;;;-1.59;100.00;100134.94;5035254;28;20478;-72
2023/02/15 07:51:06;;;;;;;39.22;10.18;;;;;;;-1.49;100.00;100113.13;5064083;28;20036;-77
2023/02/15 07:53:32;;;;;;;35.95;8.05;;;;;;;-1.33;100.00;100114.75;5033017;28;20036;-80
2023/02/15 07:56:02;;;;;;;27.50;10.93;;;;;;;-1.29;100.00;100110.09;5033683;28;20033;-81
2023/02/15 08:01:13;;;;;;;24.02;10.10;;;;;;;-0.82;100.00;100113.34;5070101;28;20083;-80
2023/02/15 08:03:38;;;;;;;40.13;9.10;;;;;;;-0.87;100.00;100089.72;5056554;28;20548;-79
2023/02/15 08:06:03;;;;;;;32.60;8.90;;;;;;;-0.66;100.00;100106.09;5061645;28;20036;-79
2023/02/15 08:08:31;;;;;;;38.15;8.85;;;;;;;-0.61;100.00;100121.75;5043581;28;20153;-73
2023/02/15 08:13:55;;;;;;;24.98;7.60;;;;;;;-0.26;100.00;100114.97;5059511;28;20083;-79
2023/02/15 08:16:24;;;;;;;20.98;7.50;;;;;;;-0.23;100.00;100130.72;5035609;28;20027;-80
2023/02/15 08:18:51;;;;;;;28.92;8.15;;;;;;;-0.32;100.00;100115.34;5043538;28;20402;-76
2023/02/15 08:21:16;;;;;;;36.00;7.85;;;;;;;-0.15;100.00;100119.56;5055180;28;20025;-80
2023/02/15 08:23:42;;;;;;;15.10;7.63;;;;;;;0.17;100.00;100120.03;5043823;28;20078;-79
2023/02/15 08:26:08;;;;;;;25.17;7.93;;;;;;;0.20;100.00;100109.19;5039167;28;20071;-78
2023/02/15 08:28:33;;;;;;;16.05;7.35;;;;;;;0.39;100.00;100110.56;5033354;28;20096;-77
2023/02/15 08:31:09;;;;;;;63.13;7.80;;;;;;;0.19;100.00;100122.59;5038891;28;20064;-79
2023/02/15 08:33:36;;;;;;;15.48;7.25;;;;;;;0.58;100.00;100118.16;5067710;28;20051;-76
2023/02/15 08:36:14;;;;;;;34.30;7.65;;;;;;;-0.28;100.00;100113.38;5051503;28;20024;-74
2023/02/15 08:38:41;;;;;;;39.38;8.38;;;;;;;0.15;100.00;100121.09;5075370;28;20028;-79
2023/02/15 08:41:10;;;;;;;17.10;7.25;;;;;;;-0.02;100.00;100124.91;5066191;28;20016;-79
2023/02/15 08:43:36;;;;;;;31.48;7.43;;;;;;;-0.19;100.00;100114.53;5048427;28;20056;-80
2023/02/15 08:46:01;;;;;;;56.28;9.02;;;;;;;-0.01;100.00;100111.50;5042813;28;20032;-74
2023/02/15 08:48:26;;;;;;;33.17;8.45;;;;;;;0.18;100.00;100127.09;5064262;28;20040;-76
2023/02/15 08:50:51;;;;;;;15.25;7.80;;;;;;;0.76;100.00;100131.97;5039835;28;20025;-75
2023/02/15 08:53:21;;;;;;;16.60;7.57;;;;;;;1.08;100.00;100114.56;5066274;28;20021;-79
2023/02/15 08:55:47;;;;;;;16.50;7.43;;;;;;;1.27;100.00;100102.56;5044528;28;20021;-78
2023/02/15 08:58:12;;;;;;;35.88;7.50;;;;;;;0.84;100.00;100108.31;5038615;28;21704;-77
2023/02/15 09:00:38;;;;;;;18.30;7.90;;;;;;;0.90;100.00;100097.22;5056675;28;20175;-76
2023/02/15 09:03:03;;;;;;;28.02;7.80;;;;;;;0.86;100.00;100090.41;5055307;28;20021;-79
2023/02/15 09:05:29;;;;;;;33.08;8.45;;;;;;;1.04;100.00;100094.41;5054047;28;20020;-77
2023/02/15 09:07:54;;;;;;;40.72;8.93;;;;;;;0.97;100.00;100085.16;5057133;28;20033;-79
2023/02/15 09:10:20;;;;;;;39.33;8.45;;;;;;;0.91;100.00;100060.75;5055259;28;20028;-78
2023/02/15 09:12:45;;;;;;;29.23;8.45;;;;;;;0.99;100.00;100077.88;5032897;28;20033;-77
2023/02/15 09:15:11;;;;;;;20.25;8.77;;;;;;;1.01;100.00;100070.66;5044057;28;20026;-77
2023/02/15 09:17:36;;;;;;;23.42;9.32;;;;;;;1.43;100.00;100073.78;5052850;28;20030;-78
2023/02/15 09:20:01;;;;;;;21.23;9.05;;;;;;;1.79;100.00;100065.84;5065359;28;20486;-76
2023/02/15 09:22:27;;;;;;;27.05;9.98;;;;;;;1.91;100.00;100068.41;5059112;28;20537;-76
2023/02/15 09:24:52;;;;;;;35.90;10.63;;;;;;;1.67;100.00;100063.09;5049174;28;20121;-74
2023/02/15 09:27:17;;;;;;;20.35;9.60;;;;;;;1.87;100.00;100058.94;5041205;28;20028;-76
2023/02/15 09:29:43;;;;;;;33.65;11.13;;;;;;;1.81;100.00;100056.75;5041273;28;20169;-74
2023/02/15 09:32:08;;;;;;;38.60;10.05;;;;;;;2.16;100.00;100047.84;5061170;28;20024;-77
2023/02/15 09:34:34;;;;;;;29.02;9.43;;;;;;;2.93;100.00;100055.13;5034173;28;20025;-80
2023/02/15 09:36:59;;;;;;;30.63;9.80;;;;;;;3.54;100.00;100050.13;5051062;28;20024;-80
2023/02/15 09:39:29;;;;;;;37.53;10.32;;;;;;;3.35;100.00;100050.75;5034229;28;21017;-77
2023/02/15 09:42:26;;;;;;;52.03;11.20;;;;;;;2.92;100.00;100048.94;5035192;28;20067;-77
2023/02/15 09:45:07;;;;;;;31.05;11.13;;;;;;;2.88;100.00;100049.28;5042093;28;20020;-77
2023/02/15 09:47:53;;;;;;;37.20;11.57;;;;;;;3.08;100.00;100040.50;5060887;28;20037;-79
2023/02/15 09:50:27;;;;;;;36.50;12.55;;;;;;;3.10;100.00;100051.09;5046317;28;20104;-78
2023/02/15 09:53:14;;;;;;;29.02;11.95;;;;;;;3.10;100.00;100051.09;5065323;28;20081;-74
2023/02/15 09:55:51;;;;;;;20.55;9.48;;;;;;;3.85;100.00;100047.53;5069181;28;20103;-77
2023/02/15 09:58:41;;;;;;;15.13;9.20;;;;;;;4.65;100.00;100044.19;5065534;28;20039;-77
2023/02/15 10:01:35;;;;;;;22.92;8.65;;;;;;;4.89;100.00;100035.78;5061408;28;20025;-72
2023/02/15 10:04:01;;;;;;;21.42;11.40;;;;;;;4.65;100.00;100032.63;5046332;28;20033;-70
2023/02/15 10:06:38;;;;;;;20.65;10.85;;;;;;;4.47;100.00;100024.34;5051764;28;20036;-70
2023/02/15 10:09:32;;;;;;;24.85;11.95;;;;;;;4.04;100.00;100018.22;5065056;28;20466;-72
2023/02/15 10:12:09;;;;;;;17.98;10.27;;;;;;;4.51;100.00;100023.97;5062049;28;20040;-75
2023/02/15 10:15:14;;;;;;;25.95;12.15;;;;;;;3.66;100.00;100014.28;5053629;28;20035;-72
2023/02/15 10:17:53;;;;;;;20.30;10.88;;;;;;;4.63;100.00;99999.72;5015134;28;20072;-72
2023/02/15 10:20:34;;;;;;;19.10;10.48;;;;;;;4.87;100.00;100028.88;5046680;28;20394;-78
2023/02/15 10:23:16;;;;;;;16.33;9.48;;;;;;;5.10;100.00;100018.78;5036136;28;20044;-78
2023/02/15 10:26:03;;;;;;;25.40;9.65;;;;;;;5.16;100.00;100028.94;5036896;28;20020;-76
2023/02/15 10:28:46;;;;;;;16.05;9.43;;;;;;;5.40;100.00;100012.47;5054308;28;20029;-77
2023/02/15 10:31:26;;;;;;;20.67;9.63;;;;;;;5.52;100.00;100029.28;5042347;28;20021;-74
2023/02/15 10:34:21;;;;;;;19.92;10.52;;;;;;;5.08;100.00;100018.06;5047979;28;20051;-77
2023/02/15 10:36:55;;;;;;;17.63;9.30;;;;;;;5.55;100.00;100023.63;5008229;28;20406;-70
2023/02/15 10:39:24;;;;;;;17.80;10.30;;;;;;;5.20;100.00;100022.31;4988485;28;20043;-70
2023/02/15 10:41:49;;;;;;;17.98;9.13;;;;;;;6.11;100.00;100014.84;4979898;28;20037;-63
2023/02/15 10:44:41;;;;;;;16.48;9.43;;;;;;;6.94;100.00;100006.84;5001294;28;20038;-63
2023/02/15 10:47:24;;;;;;;15.63;8.40;;;;;;;8.24;100.00;100006.34;4980878;28;20038;-62
2023/02/15 10:50:17;;;;;;;15.95;9.00;;;;;;;9.24;100.00;100007.50;4978189;28;20046;-63
2023/02/15 10:53:02;;;;;;;19.33;10.50;;;;;;;8.39;100.00;99998.53;5004882;28;20076;-63
2023/02/15 10:55:34;;;;;;;14.90;9.73;;;;;;;8.70;100.00;99996.19;5011444;28;20026;-63
2023/02/15 10:58:25;;;;;;;17.52;10.00;;;;;;;9.03;100.00;99991.75;4989274;28;20393;-63
2023/02/15 11:01:11;;;;;;;16.52;9.48;;;;;;;10.07;100.00;99993.88;4972973;28;20114;-63
2023/02/15 11:03:36;;;;;;;16.52;10.27;;;;;;;9.63;100.00;99998.78;4986596;28;20453;-70
2023/02/15 11:06:13;;;;;;;14.98;9.77;;;;;;;9.97;100.00;99990.50;4977590;28;20027;-70
2023/02/15 11:08:43;;;;;;;19.33;10.88;;;;;;;9.84;100.00;99985.59;4979483;28;20045;-70
2023/02/15 11:11:20;;;;;;;17.38;10.40;;;;;;;9.86;97.88;99993.56;4991349;28;20546;-70
2023/02/15 11:13:51;;;;;;;17.60;11.45;;;;;;;11.57;80.16;99986.66;4991629;28;20355;-69
2023/02/15 11:16:25;;;;;;;13.57;9.85;;;;;;;12.24;72.40;99976.97;4984119;28;20057;-69
2023/02/15 11:18:57;;;;;;;12.45;9.32;;;;;;;13.59;66.18;99980.13;4997046;28;20088;-69
2023/02/15 11:21:26;;;;;;;13.35;10.07;;;;;;;14.88;57.90;99973.56;4993621;28;20034;-69
2023/02/15 11:23:52;;;;;;;;;;;;;;;17.34;53.51;99961.72;4992442;28;20042;-69
2023/02/15 11:26:32;;;;;;;13.10;9.25;;;;;;;18.94;48.52;99961.19;4988738;28;19967;-68
2023/02/15 11:29:11;;;;;;;11.45;8.50;;;;;;;17.95;47.46;99961.16;4971829;28;20031;-69
2023/02/15 11:31:44;;;;;;;13.35;9.70;;;;;;;17.64;49.34;99971.03;4980413;28;20030;-68
2023/02/15 11:34:29;;;;;;;14.18;9.95;;;;;;;19.65;45.07;99951.38;4970309;28;20034;-68
2023/02/15 11:36:59;;;;;;;11.27;8.98;;;;;;;20.61;45.13;99956.75;4976291;28;20034;-68
2023/02/15 11:39:28;;;;;;;10.90;9.27;;;;;;;20.43;44.19;99942.03;4976210;28;20030;-68
2023/02/15 11:41:59;;;;;;;13.70;10.68;;;;;;;19.76;43.93;99958.84;4986116;28;20768;-67
2023/02/15 11:44:55;;;;;;;13.50;10.07;;;;;;;21.53;40.62;99951.22;4971696;28;20390;-67
2023/02/15 11:47:20;;;;;;;13.55;9.98;;;;;;;22.49;40.00;99948.41;4981573;28;20458;-67
2023/02/15 11:49:46;;;;;;;11.93;9.68;;;;;;;22.77;39.70;99943.84;4959688;28;20534;-68
2023/02/15 11:52:14;;;;;;;12.77;10.07;;;;;;;22.73;40.20;99940.75;4964654;28;20075;-68
2023/02/15 11:54:42;;;;;;;9.73;8.45;;;;;;;21.95;40.79;99934.31;4982491;28;20026;-67